Welcome to our new website - Welkom op onze vernieuwde website
Check our progress frequently. Contoleer regelmatig onze weerberichten

This is an optional block. Switch it on/off in your settings-file: $SITE['bannerTop'] = false; or $SITE['bannerBottom'] = false;

You can display ads, any other important text or photo’s using text / html or PHP code.

You can place one or more at the top and or bottom and it can all be different for content / size .

16:39 23-6-2020


My webcam  My webcam


Bezoek ook deze websites:

Template documentation
and downloads

And another site



METAR rapporten vliegvelden

   
EHVK - Volkel Rnlafb, Netherlands
Afstand tot: ZW 18 km
Gewijzigd: 22-02-2024 09:29
Bewolking  
Bewolking  
   Wind: Zuiden 14.8 km/h
Wind: Zuiden 14.8 km/h
Temperatuur: 10°C
Voelt als: 8°C
Dauwpunt: 9°C
Vochtigheid: 94%
Barometer: 992 hPa
Bewolking: Bewolking
Zicht: meer dan 10 km
Bewolking: Licht bewolkt 1200 ft,
Grotendeels bewolkt 1400 ft,
Bewolking 1700 ft
EHVK 220829Z AUTO 18008KT 150V210 9999 FEW012 BKN014 OVC017 10/09 Q0992 GRN TEMPO SCT012 BKN018
EDLV - Niederrhein, Germany
Afstand tot: ZO 25 km
Gewijzigd: 22-02-2024 09:20
Helder  
Helder  
   Wind: Zuiden 13 km/h
Wind: Zuiden 13 km/h
Temperatuur: 10°C
Voelt als: 8°C
Dauwpunt: 9°C
Vochtigheid: 94%
Barometer: 993 hPa
Zicht: meer dan 10 km
Bewolking: Helder
EDLV 220820Z 19007KT 160V220 CAVOK 10/09 Q0993
EHDL - Deelen Rnlafb, Netherlands
Afstand tot: N 35 km
Gewijzigd: 22-02-2024 09:25
Grotendeels bewolkt  
Grotendeels bewolkt  
   Wind: Zuiden 16.7 km/h
Wind: Zuiden 16.7 km/h
Temperatuur: 10°C
Voelt als: 8°C
Dauwpunt: 9°C
Vochtigheid: 94%
Barometer: 992 hPa
Bewolking: Grotendeels bewolkt
Zicht: meer dan 10 km
Bewolking: Gedeeltelijk bewolkt 500 ft,
Grotendeels bewolkt 600 ft,
Grotendeels bewolkt 700 ft
EHDL 220825Z AUTO 19009KT 120V270 9999 SCT005 BKN006 BKN007 10/09 Q0992 YLO
EHEH - Eindhoven Rnlafb, Netherlands
Afstand tot: ZW 48 km
Gewijzigd: 22-02-2024 09:29
Grotendeels bewolkt  
Grotendeels bewolkt  
   Wind: Zuiden 13 km/h
Wind: Zuiden 13 km/h
Temperatuur: 10°C
Voelt als: 8°C
Dauwpunt: 9°C
Vochtigheid: 94%
Barometer: 992 hPa
Bewolking: Grotendeels bewolkt
Zicht: meer dan 10 km
Bewolking: Licht bewolkt 600 ft,
Grotendeels bewolkt 700 ft,
Grotendeels bewolkt 800 ft
EHEH 220829Z AUTO 17007KT 140V210 9999 FEW006 BKN007 BKN008 10/09 Q0992 GRN TEMPO SCT005 BKN008 BKN012
EHGR - Gilze-Rijen Rnla, Netherlands
Afstand tot: WZW 70 km
Gewijzigd: 22-02-2024 09:25
Bewolking  
Bewolking  
   Wind: Zuiden 14.8 km/h
Wind: Zuiden 14.8 km/h
Temperatuur: 10°C
Voelt als: 8°C
Dauwpunt: 9°C
Vochtigheid: 94%
Barometer: 992 hPa
Bewolking: Bewolking
Zicht: meer dan 10 km
Bewolking: Bewolking 15000 ft
EHGR 220825Z AUTO 17008KT 140V210 9999 OVC150 10/09 Q0992 BLU NOSIG
EBBL - Kleine-Brogel(Ba, Belgium
Afstand tot: ZZW 71 km
Gewijzigd: 22-02-2024 09:25
Wat regen mogelijk, Grotendeels bewolkt  
Wat regen mogelijk, Grotendeels bewolkt  
   Wind: Zuiden 11.1 km/h
Wind: Zuiden 11.1 km/h
Temperatuur: 10°C
Voelt als: 8°C
Dauwpunt: 9°C
Vochtigheid: 94%
Barometer: 992 hPa
Bewolking: Grotendeels bewolkt
Zicht: 4 km
Bewolking: Gedeeltelijk bewolkt 500 ft,
Grotendeels bewolkt 1000 ft
EBBL 220825Z 19006KT 4000 -RA SCT005 BKN010 10/09 Q0992 YLO GRN TEMPO YLO

Script ontwikkeld door  Saratoga-weather.org Aangepast voor de template door  Weerstation Leuven

U vindt ons ook hier:

Weather Underground

Benelux Weer Netwerk

AWEKAS

Apparatuur in gebruik:

Weerstation
Davis VP2

Weerprogramma
Weather Display

Weercomputer
Asrock D1800B

Webleverancier
Vimexx

Davis VP2

Weather Display

Asrock D1800B

Vimexx


This is an optional block. Switch it on/off in your settings-file: $SITE['bannerTop'] = false; or $SITE['bannerBottom'] = false;

You can display ads, any other important text or photo’s using text / html or PHP code.

You can place one or more at the top and or bottom and it can all be different for content / size .

16:39 23-6-2020